sensor_id;sensor_type;location;lat;lon;timestamp;temperature;humidity
56046;DHT22;41913;51.030;3.706;2023-02-24T00:00:11;19.40;82.60
56046;DHT22;41913;51.030;3.706;2023-02-24T00:03:02;19.30;82.60
56046;DHT22;41913;51.030;3.706;2023-02-24T00:05:34;19.40;82.60
56046;DHT22;41913;51.030;3.706;2023-02-24T00:08:00;19.30;82.60
56046;DHT22;41913;51.030;3.706;2023-02-24T00:10:26;19.30;82.60
56046;DHT22;41913;51.030;3.706;2023-02-24T00:12:52;19.30;82.60
56046;DHT22;41913;51.030;3.706;2023-02-24T00:15:18;19.30;82.60
56046;DHT22;41913;51.030;3.706;2023-02-24T00:17:45;19.30;82.60
56046;DHT22;41913;51.030;3.706;2023-02-24T00:20:12;19.30;82.60
56046;DHT22;41913;51.030;3.706;2023-02-24T00:22:41;19.30;83.10
56046;DHT22;41913;51.030;3.706;2023-02-24T00:25:07;19.30;82.50
56046;DHT22;41913;51.030;3.706;2023-02-24T00:27:32;19.30;82.50
56046;DHT22;41913;51.030;3.706;2023-02-24T00:29:58;19.30;82.60
56046;DHT22;41913;51.030;3.706;2023-02-24T00:32:24;19.30;82.50
56046;DHT22;41913;51.030;3.706;2023-02-24T00:34:49;19.20;82.40
56046;DHT22;41913;51.030;3.706;2023-02-24T00:37:15;19.20;82.50
56046;DHT22;41913;51.030;3.706;2023-02-24T00:39:40;19.20;82.40
56046;DHT22;41913;51.030;3.706;2023-02-24T00:42:09;19.20;82.40
56046;DHT22;41913;51.030;3.706;2023-02-24T00:44:37;19.20;83.00
56046;DHT22;41913;51.030;3.706;2023-02-24T00:47:05;19.20;82.40
56046;DHT22;41913;51.030;3.706;2023-02-24T00:49:32;19.20;82.40
56046;DHT22;41913;51.030;3.706;2023-02-24T00:52:00;19.20;82.90
56046;DHT22;41913;51.030;3.706;2023-02-24T00:54:29;19.20;82.40
56046;DHT22;41913;51.030;3.706;2023-02-24T00:56:55;19.20;82.40
56046;DHT22;41913;51.030;3.706;2023-02-24T00:59:22;19.20;82.40
56046;DHT22;41913;51.030;3.706;2023-02-24T01:01:50;19.10;82.80
56046;DHT22;41913;51.030;3.706;2023-02-24T01:04:17;19.20;82.40
56046;DHT22;41913;51.030;3.706;2023-02-24T01:06:46;19.10;82.30
56046;DHT22;41913;51.030;3.706;2023-02-24T01:09:16;19.10;82.30
56046;DHT22;41913;51.030;3.706;2023-02-24T01:11:43;19.10;82.30
56046;DHT22;41913;51.030;3.706;2023-02-24T01:14:32;19.10;82.30
56046;DHT22;41913;51.030;3.706;2023-02-24T01:16:59;19.10;82.30
56046;DHT22;41913;51.030;3.706;2023-02-24T01:19:28;19.10;82.20
56046;DHT22;41913;51.030;3.706;2023-02-24T01:22:00;19.10;82.20
56046;DHT22;41913;51.030;3.706;2023-02-24T01:24:28;19.10;82.70
56046;DHT22;41913;51.030;3.706;2023-02-24T01:26:54;19.10;82.20
56046;DHT22;41913;51.030;3.706;2023-02-24T01:29:21;19.10;82.70
56046;DHT22;41913;51.030;3.706;2023-02-24T01:31:48;19.10;82.20
56046;DHT22;41913;51.030;3.706;2023-02-24T01:34:15;19.10;82.20
56046;DHT22;41913;51.030;3.706;2023-02-24T01:36:41;19.10;82.70
56046;DHT22;41913;51.030;3.706;2023-02-24T01:39:11;19.10;82.10
56046;DHT22;41913;51.030;3.706;2023-02-24T01:41:40;19.10;82.20
56046;DHT22;41913;51.030;3.706;2023-02-24T01:46:43;19.00;82.10
56046;DHT22;41913;51.030;3.706;2023-02-24T01:49:20;19.10;82.10
56046;DHT22;41913;51.030;3.706;2023-02-24T01:51:52;19.00;82.10
56046;DHT22;41913;51.030;3.706;2023-02-24T01:54:21;19.00;82.10
56046;DHT22;41913;51.030;3.706;2023-02-24T01:56:51;19.00;82.10
56046;DHT22;41913;51.030;3.706;2023-02-24T01:59:23;19.00;82.10
56046;DHT22;41913;51.030;3.706;2023-02-24T02:01:52;19.00;82.00
56046;DHT22;41913;51.030;3.706;2023-02-24T02:04:33;19.00;82.00
56046;DHT22;41913;51.030;3.706;2023-02-24T02:07:01;19.00;82.00
56046;DHT22;41913;51.030;3.706;2023-02-24T02:09:27;19.00;82.00
56046;DHT22;41913;51.030;3.706;2023-02-24T02:11:54;19.00;82.00
56046;DHT22;41913;51.030;3.706;2023-02-24T02:14:24;18.90;81.90
56046;DHT22;41913;51.030;3.706;2023-02-24T02:17:24;19.00;82.50
56046;DHT22;41913;51.030;3.706;2023-02-24T02:28:24;18.90;81.90
56046;DHT22;41913;51.030;3.706;2023-02-24T02:37:04;18.90;81.90
56046;DHT22;41913;51.030;3.706;2023-02-24T02:45:17;18.90;81.90
56046;DHT22;41913;51.030;3.706;2023-02-24T02:47:49;18.90;81.90
56046;DHT22;41913;51.030;3.706;2023-02-24T02:50:51;18.90;81.90
56046;DHT22;41913;51.030;3.706;2023-02-24T02:58:40;18.90;81.80
56046;DHT22;41913;51.030;3.706;2023-02-24T03:01:07;18.80;81.80
56046;DHT22;41913;51.030;3.706;2023-02-24T03:03:41;18.80;81.80
56046;DHT22;41913;51.030;3.706;2023-02-24T03:06:11;18.80;81.70
56046;DHT22;41913;51.030;3.706;2023-02-24T03:08:43;18.80;81.80
56046;DHT22;41913;51.030;3.706;2023-02-24T03:11:14;18.80;81.70
56046;DHT22;41913;51.030;3.706;2023-02-24T03:13:42;18.80;81.70
56046;DHT22;41913;51.030;3.706;2023-02-24T03:16:11;18.80;81.70
56046;DHT22;41913;51.030;3.706;2023-02-24T03:18:44;18.80;81.70
56046;DHT22;41913;51.030;3.706;2023-02-24T03:21:36;18.80;81.70
56046;DHT22;41913;51.030;3.706;2023-02-24T03:24:05;18.80;81.60
56046;DHT22;41913;51.030;3.706;2023-02-24T03:26:43;18.80;81.60
56046;DHT22;41913;51.030;3.706;2023-02-24T03:29:14;18.80;81.60
56046;DHT22;41913;51.030;3.706;2023-02-24T03:31:54;18.70;81.50
56046;DHT22;41913;51.030;3.706;2023-02-24T03:35:07;18.80;81.60
56046;DHT22;41913;51.030;3.706;2023-02-24T03:37:36;18.80;81.50
56046;DHT22;41913;51.030;3.706;2023-02-24T03:40:05;18.70;82.10
56046;DHT22;41913;51.030;3.706;2023-02-24T03:42:34;18.70;81.50
56046;DHT22;41913;51.030;3.706;2023-02-24T03:45:00;18.70;81.40
56046;DHT22;41913;51.030;3.706;2023-02-24T03:47:26;18.70;81.40
56046;DHT22;41913;51.030;3.706;2023-02-24T03:49:52;18.70;82.00
56046;DHT22;41913;51.030;3.706;2023-02-24T04:01:22;18.70;81.40
56046;DHT22;41913;51.030;3.706;2023-02-24T04:03:59;18.70;81.40
56046;DHT22;41913;51.030;3.706;2023-02-24T04:06:44;18.70;81.40
56046;DHT22;41913;51.030;3.706;2023-02-24T04:12:19;18.70;81.40
56046;DHT22;41913;51.030;3.706;2023-02-24T04:14:50;18.70;81.40
56046;DHT22;41913;51.030;3.706;2023-02-24T04:17:24;18.70;81.40
56046;DHT22;41913;51.030;3.706;2023-02-24T04:19:54;18.70;81.40
56046;DHT22;41913;51.030;3.706;2023-02-24T04:22:24;18.70;81.40
56046;DHT22;41913;51.030;3.706;2023-02-24T04:24:54;18.70;81.50
56046;DHT22;41913;51.030;3.706;2023-02-24T04:27:21;18.70;81.50
56046;DHT22;41913;51.030;3.706;2023-02-24T04:29:52;18.70;81.50
56046;DHT22;41913;51.030;3.706;2023-02-24T04:32:22;18.70;81.50
56046;DHT22;41913;51.030;3.706;2023-02-24T04:34:49;18.70;81.50
56046;DHT22;41913;51.030;3.706;2023-02-24T04:37:16;18.70;81.50
56046;DHT22;41913;51.030;3.706;2023-02-24T04:39:41;18.70;81.50
56046;DHT22;41913;51.030;3.706;2023-02-24T04:42:07;18.60;81.40
56046;DHT22;41913;51.030;3.706;2023-02-24T04:44:33;18.60;81.40
56046;DHT22;41913;51.030;3.706;2023-02-24T04:46:59;18.70;81.40
56046;DHT22;41913;51.030;3.706;2023-02-24T04:49:25;18.60;81.40
56046;DHT22;41913;51.030;3.706;2023-02-24T04:51:50;18.60;81.30
56046;DHT22;41913;51.030;3.706;2023-02-24T04:54:18;18.60;81.30
56046;DHT22;41913;51.030;3.706;2023-02-24T04:56:46;18.60;81.40
56046;DHT22;41913;51.030;3.706;2023-02-24T04:59:18;18.70;81.40
56046;DHT22;41913;51.030;3.706;2023-02-24T05:01:45;18.60;81.30
56046;DHT22;41913;51.030;3.706;2023-02-24T05:04:13;18.60;81.30
56046;DHT22;41913;51.030;3.706;2023-02-24T05:06:42;18.60;81.30
56046;DHT22;41913;51.030;3.706;2023-02-24T05:09:13;18.60;81.30
56046;DHT22;41913;51.030;3.706;2023-02-24T05:11:48;18.60;81.30
56046;DHT22;41913;51.030;3.706;2023-02-24T05:14:17;18.60;81.30
56046;DHT22;41913;51.030;3.706;2023-02-24T05:16:44;18.60;81.30
56046;DHT22;41913;51.030;3.706;2023-02-24T05:19:13;18.60;81.30
56046;DHT22;41913;51.030;3.706;2023-02-24T05:21:59;18.60;81.20
56046;DHT22;41913;51.030;3.706;2023-02-24T05:24:28;18.60;81.30
56046;DHT22;41913;51.030;3.706;2023-02-24T05:26:55;18.60;81.20
56046;DHT22;41913;51.030;3.706;2023-02-24T05:29:27;18.60;81.30
56046;DHT22;41913;51.030;3.706;2023-02-24T05:31:54;18.60;81.20
56046;DHT22;41913;51.030;3.706;2023-02-24T05:34:23;18.60;81.20
56046;DHT22;41913;51.030;3.706;2023-02-24T05:36:50;18.60;81.20
56046;DHT22;41913;51.030;3.706;2023-02-24T05:39:18;18.50;81.20
56046;DHT22;41913;51.030;3.706;2023-02-24T05:41:47;18.50;81.10
56046;DHT22;41913;51.030;3.706;2023-02-24T05:44:15;18.50;81.20
56046;DHT22;41913;51.030;3.706;2023-02-24T05:46:44;18.50;81.10
56046;DHT22;41913;51.030;3.706;2023-02-24T05:49:15;18.50;81.10
56046;DHT22;41913;51.030;3.706;2023-02-24T05:51:45;18.50;81.60
56046;DHT22;41913;51.030;3.706;2023-02-24T05:54:20;18.50;81.10
56046;DHT22;41913;51.030;3.706;2023-02-24T05:56:47;18.50;81.10
56046;DHT22;41913;51.030;3.706;2023-02-24T05:59:14;18.50;81.00
56046;DHT22;41913;51.030;3.706;2023-02-24T06:01:46;18.50;81.00
56046;DHT22;41913;51.030;3.706;2023-02-24T06:04:15;18.50;81.00
56046;DHT22;41913;51.030;3.706;2023-02-24T06:07:05;18.50;81.50
56046;DHT22;41913;51.030;3.706;2023-02-24T06:09:32;18.50;81.50
56046;DHT22;41913;51.030;3.706;2023-02-24T06:11:59;18.50;81.00
56046;DHT22;41913;51.030;3.706;2023-02-24T06:14:24;18.50;81.50
56046;DHT22;41913;51.030;3.706;2023-02-24T06:16:50;18.50;81.00
56046;DHT22;41913;51.030;3.706;2023-02-24T06:19:16;18.50;81.00
56046;DHT22;41913;51.030;3.706;2023-02-24T06:21:42;18.50;81.00
56046;DHT22;41913;51.030;3.706;2023-02-24T06:24:12;18.40;80.90
56046;DHT22;41913;51.030;3.706;2023-02-24T06:26:40;18.50;80.90
56046;DHT22;41913;51.030;3.706;2023-02-24T06:29:14;18.50;80.90
56046;DHT22;41913;51.030;3.706;2023-02-24T06:31:40;18.40;80.90
56046;DHT22;41913;51.030;3.706;2023-02-24T06:34:07;18.40;80.80
56046;DHT22;41913;51.030;3.706;2023-02-24T06:36:37;18.40;80.90
56046;DHT22;41913;51.030;3.706;2023-02-24T06:39:05;18.40;80.90
56046;DHT22;41913;51.030;3.706;2023-02-24T06:41:35;18.40;80.80
56046;DHT22;41913;51.030;3.706;2023-02-24T06:44:02;18.40;80.80
56046;DHT22;41913;51.030;3.706;2023-02-24T06:46:28;18.40;80.80
56046;DHT22;41913;51.030;3.706;2023-02-24T06:48:56;18.40;80.80
56046;DHT22;41913;51.030;3.706;2023-02-24T06:51:26;18.40;80.80
56046;DHT22;41913;51.030;3.706;2023-02-24T06:53:58;18.40;80.80
56046;DHT22;41913;51.030;3.706;2023-02-24T06:56:25;18.40;80.70
56046;DHT22;41913;51.030;3.706;2023-02-24T06:58:55;18.40;80.70
56046;DHT22;41913;51.030;3.706;2023-02-24T07:01:25;18.40;80.70
56046;DHT22;41913;51.030;3.706;2023-02-24T07:03:52;18.40;80.70
56046;DHT22;41913;51.030;3.706;2023-02-24T07:06:44;18.40;80.70
56046;DHT22;41913;51.030;3.706;2023-02-24T07:09:14;18.40;81.20
56046;DHT22;41913;51.030;3.706;2023-02-24T07:11:42;18.40;80.70
56046;DHT22;41913;51.030;3.706;2023-02-24T07:14:09;18.40;80.60
56046;DHT22;41913;51.030;3.706;2023-02-24T07:16:36;18.30;80.60
56046;DHT22;41913;51.030;3.706;2023-02-24T07:19:08;18.40;80.60
56046;DHT22;41913;51.030;3.706;2023-02-24T07:21:36;18.30;80.50
56046;DHT22;41913;51.030;3.706;2023-02-24T07:24:13;18.40;80.60
56046;DHT22;41913;51.030;3.706;2023-02-24T07:26:44;18.40;80.60
56046;DHT22;41913;51.030;3.706;2023-02-24T07:29:17;18.40;80.50
56046;DHT22;41913;51.030;3.706;2023-02-24T07:31:43;18.40;80.40
56046;DHT22;41913;51.030;3.706;2023-02-24T07:34:09;18.50;80.40
56046;DHT22;41913;51.030;3.706;2023-02-24T07:36:42;18.70;80.50
56046;DHT22;41913;51.030;3.706;2023-02-24T07:39:14;18.80;80.80
56046;DHT22;41913;51.030;3.706;2023-02-24T07:41:40;18.90;80.80
56046;DHT22;41913;51.030;3.706;2023-02-24T07:44:12;19.00;81.00
56046;DHT22;41913;51.030;3.706;2023-02-24T07:46:38;19.10;81.60
56046;DHT22;41913;51.030;3.706;2023-02-24T07:49:05;19.30;82.00
56046;DHT22;41913;51.030;3.706;2023-02-24T07:51:34;19.40;82.00
56046;DHT22;41913;51.030;3.706;2023-02-24T07:54:00;19.40;81.70
56046;DHT22;41913;51.030;3.706;2023-02-24T07:56:29;19.50;81.40
56046;DHT22;41913;51.030;3.706;2023-02-24T07:59:05;19.50;81.10
56046;DHT22;41913;51.030;3.706;2023-02-24T08:01:36;19.60;80.80
56046;DHT22;41913;51.030;3.706;2023-02-24T08:04:05;19.60;80.60
56046;DHT22;41913;51.030;3.706;2023-02-24T08:06:33;19.70;80.40
56046;DHT22;41913;51.030;3.706;2023-02-24T08:11:46;19.80;80.10
56046;DHT22;41913;51.030;3.706;2023-02-24T08:14:17;19.80;79.90
56046;DHT22;41913;51.030;3.706;2023-02-24T08:16:48;19.80;79.70
56046;DHT22;41913;51.030;3.706;2023-02-24T08:19:18;19.90;79.70
56046;DHT22;41913;51.030;3.706;2023-02-24T08:21:47;20.00;79.70
56046;DHT22;41913;51.030;3.706;2023-02-24T08:24:19;20.00;80.30
56046;DHT22;41913;51.030;3.706;2023-02-24T08:26:50;20.10;79.90
56046;DHT22;41913;51.030;3.706;2023-02-24T08:29:35;20.10;80.10
56046;DHT22;41913;51.030;3.706;2023-02-24T08:32:10;20.20;80.30
56046;DHT22;41913;51.030;3.706;2023-02-24T08:34:37;20.30;80.50
56046;DHT22;41913;51.030;3.706;2023-02-24T08:37:04;20.30;80.60
56046;DHT22;41913;51.030;3.706;2023-02-24T08:39:30;20.40;80.90
56046;DHT22;41913;51.030;3.706;2023-02-24T08:42:01;20.50;81.10
56046;DHT22;41913;51.030;3.706;2023-02-24T08:44:27;20.50;81.20
56046;DHT22;41913;51.030;3.706;2023-02-24T08:46:56;20.50;81.30
56046;DHT22;41913;51.030;3.706;2023-02-24T08:49:22;20.60;81.50
56046;DHT22;41913;51.030;3.706;2023-02-24T08:51:53;20.60;81.50
56046;DHT22;41913;51.030;3.706;2023-02-24T08:54:21;20.60;81.50
56046;DHT22;41913;51.030;3.706;2023-02-24T08:56:54;20.70;81.40
56046;DHT22;41913;51.030;3.706;2023-02-24T08:59:33;20.70;81.30
56046;DHT22;41913;51.030;3.706;2023-02-24T09:02:22;20.70;81.10
56046;DHT22;41913;51.030;3.706;2023-02-24T09:05:00;20.80;80.90
56046;DHT22;41913;51.030;3.706;2023-02-24T09:07:35;20.80;80.60
56046;DHT22;41913;51.030;3.706;2023-02-24T09:10:07;20.80;80.40
56046;DHT22;41913;51.030;3.706;2023-02-24T09:12:36;20.80;80.20
56046;DHT22;41913;51.030;3.706;2023-02-24T09:15:06;20.90;80.20
56046;DHT22;41913;51.030;3.706;2023-02-24T09:17:33;20.90;79.90
56046;DHT22;41913;51.030;3.706;2023-02-24T09:20:18;20.90;79.70
56046;DHT22;41913;51.030;3.706;2023-02-24T09:22:50;20.90;79.40
56046;DHT22;41913;51.030;3.706;2023-02-24T09:25:30;20.90;79.20
56046;DHT22;41913;51.030;3.706;2023-02-24T09:30:46;21.00;79.00
56046;DHT22;41913;51.030;3.706;2023-02-24T09:35:49;21.10;79.00
56046;DHT22;41913;51.030;3.706;2023-02-24T09:38:16;21.10;79.00
56046;DHT22;41913;51.030;3.706;2023-02-24T09:40:47;21.20;79.00
56046;DHT22;41913;51.030;3.706;2023-02-24T09:43:19;21.20;78.90
56046;DHT22;41913;51.030;3.706;2023-02-24T09:46:06;21.20;78.90
56046;DHT22;41913;51.030;3.706;2023-02-24T09:48:55;21.30;78.90
56046;DHT22;41913;51.030;3.706;2023-02-24T09:51:30;21.30;78.90
56046;DHT22;41913;51.030;3.706;2023-02-24T09:54:13;21.30;78.80
56046;DHT22;41913;51.030;3.706;2023-02-24T09:57:00;21.40;78.80
56046;DHT22;41913;51.030;3.706;2023-02-24T09:59:58;21.40;78.80
56046;DHT22;41913;51.030;3.706;2023-02-24T10:03:13;21.50;78.80
56046;DHT22;41913;51.030;3.706;2023-02-24T10:06:02;21.50;78.70
56046;DHT22;41913;51.030;3.706;2023-02-24T10:08:46;21.50;78.70
56046;DHT22;41913;51.030;3.706;2023-02-24T10:11:14;21.60;78.70
56046;DHT22;41913;51.030;3.706;2023-02-24T10:13:53;21.60;78.60
56046;DHT22;41913;51.030;3.706;2023-02-24T10:16:24;21.70;78.60
56046;DHT22;41913;51.030;3.706;2023-02-24T10:18:59;21.70;78.50
56046;DHT22;41913;51.030;3.706;2023-02-24T10:22:15;21.70;78.40
56046;DHT22;41913;51.030;3.706;2023-02-24T10:25:04;21.70;78.30
56046;DHT22;41913;51.030;3.706;2023-02-24T10:30:32;21.80;78.00
56046;DHT22;41913;51.030;3.706;2023-02-24T10:33:24;21.80;77.80
56046;DHT22;41913;51.030;3.706;2023-02-24T10:36:04;21.90;77.70
56046;DHT22;41913;51.030;3.706;2023-02-24T10:38:34;21.90;78.00
56046;DHT22;41913;51.030;3.706;2023-02-24T10:41:00;22.00;77.80
56046;DHT22;41913;51.030;3.706;2023-02-24T10:43:31;22.10;77.60
56046;DHT22;41913;51.030;3.706;2023-02-24T10:46:00;22.10;77.60
56046;DHT22;41913;51.030;3.706;2023-02-24T10:48:50;22.10;77.50
56046;DHT22;41913;51.030;3.706;2023-02-24T10:51:18;22.20;77.30
56046;DHT22;41913;51.030;3.706;2023-02-24T10:53:48;22.20;77.20
56046;DHT22;41913;51.030;3.706;2023-02-24T10:56:42;22.20;77.00
56046;DHT22;41913;51.030;3.706;2023-02-24T10:59:19;22.30;76.80
56046;DHT22;41913;51.030;3.706;2023-02-24T11:02:36;22.30;76.50
56046;DHT22;41913;51.030;3.706;2023-02-24T11:05:24;22.30;76.90
56046;DHT22;41913;51.030;3.706;2023-02-24T11:10:41;22.30;76.80
56046;DHT22;41913;51.030;3.706;2023-02-24T11:13:18;22.30;77.10
56046;DHT22;41913;51.030;3.706;2023-02-24T11:16:03;22.30;77.40
56046;DHT22;41913;51.030;3.706;2023-02-24T11:18:50;22.40;77.60
56046;DHT22;41913;51.030;3.706;2023-02-24T11:21:17;22.40;77.60
56046;DHT22;41913;51.030;3.706;2023-02-24T11:23:46;22.40;77.60
56046;DHT22;41913;51.030;3.706;2023-02-24T11:26:25;22.30;77.50
56046;DHT22;41913;51.030;3.706;2023-02-24T11:31:50;22.30;77.50
56046;DHT22;41913;51.030;3.706;2023-02-24T11:37:57;22.30;77.30
56046;DHT22;41913;51.030;3.706;2023-02-24T11:40:29;22.10;77.10
56046;DHT22;41913;51.030;3.706;2023-02-24T11:43:15;22.10;77.00
56046;DHT22;41913;51.030;3.706;2023-02-24T11:45:49;22.10;77.00
56046;DHT22;41913;51.030;3.706;2023-02-24T11:48:51;22.00;76.70
56046;DHT22;41913;51.030;3.706;2023-02-24T11:51:31;22.00;76.60
56046;DHT22;41913;51.030;3.706;2023-02-24T11:56:51;22.00;76.60
56046;DHT22;41913;51.030;3.706;2023-02-24T11:59:36;22.00;76.60
56046;DHT22;41913;51.030;3.706;2023-02-24T12:05:16;22.00;76.60
56046;DHT22;41913;51.030;3.706;2023-02-24T12:07:49;22.00;76.70
56046;DHT22;41913;51.030;3.706;2023-02-24T12:10:30;22.00;76.70
56046;DHT22;41913;51.030;3.706;2023-02-24T12:16:23;22.00;76.60
56046;DHT22;41913;51.030;3.706;2023-02-24T12:18:59;22.00;76.50
56046;DHT22;41913;51.030;3.706;2023-02-24T12:21:33;21.90;76.40
56046;DHT22;41913;51.030;3.706;2023-02-24T12:24:00;21.90;76.30
56046;DHT22;41913;51.030;3.706;2023-02-24T12:34:45;21.70;76.10
56046;DHT22;41913;51.030;3.706;2023-02-24T12:40:12;21.60;75.80
56046;DHT22;41913;51.030;3.706;2023-02-24T12:45:21;21.40;75.70
56046;DHT22;41913;51.030;3.706;2023-02-24T12:48:06;21.30;75.60
56046;DHT22;41913;51.030;3.706;2023-02-24T12:58:38;21.20;75.50
56046;DHT22;41913;51.030;3.706;2023-02-24T13:01:20;21.20;75.50
56046;DHT22;41913;51.030;3.706;2023-02-24T13:04:02;21.20;76.00
56046;DHT22;41913;51.030;3.706;2023-02-24T13:09:19;21.10;75.30
56046;DHT22;41913;51.030;3.706;2023-02-24T13:15:20;21.10;75.40
56046;DHT22;41913;51.030;3.706;2023-02-24T13:17:47;21.00;75.30
56046;DHT22;41913;51.030;3.706;2023-02-24T13:20:34;21.00;75.40
56046;DHT22;41913;51.030;3.706;2023-02-24T13:23:03;21.00;75.30
56046;DHT22;41913;51.030;3.706;2023-02-24T13:25:51;21.00;75.40
56046;DHT22;41913;51.030;3.706;2023-02-24T13:28:27;21.00;75.40
56046;DHT22;41913;51.030;3.706;2023-02-24T13:31:01;21.00;75.60
56046;DHT22;41913;51.030;3.706;2023-02-24T13:33:38;21.00;75.80
56046;DHT22;41913;51.030;3.706;2023-02-24T13:36:17;21.00;76.20
56046;DHT22;41913;51.030;3.706;2023-02-24T13:38:48;20.90;76.50
56046;DHT22;41913;51.030;3.706;2023-02-24T13:41:32;20.90;76.80
56046;DHT22;41913;51.030;3.706;2023-02-24T13:44:21;20.80;76.90
56046;DHT22;41913;51.030;3.706;2023-02-24T13:52:35;20.80;77.60
56046;DHT22;41913;51.030;3.706;2023-02-24T14:03:09;20.70;78.30
56046;DHT22;41913;51.030;3.706;2023-02-24T14:05:35;20.60;78.30
56046;DHT22;41913;51.030;3.706;2023-02-24T14:08:02;20.60;78.30
56046;DHT22;41913;51.030;3.706;2023-02-24T14:10:31;20.60;78.40
56046;DHT22;41913;51.030;3.706;2023-02-24T14:13:03;20.60;78.50
56046;DHT22;41913;51.030;3.706;2023-02-24T14:15:32;20.60;78.60
56046;DHT22;41913;51.030;3.706;2023-02-24T14:18:04;20.60;78.80
56046;DHT22;41913;51.030;3.706;2023-02-24T14:20:34;20.60;79.00
56046;DHT22;41913;51.030;3.706;2023-02-24T14:23:24;20.60;79.10
56046;DHT22;41913;51.030;3.706;2023-02-24T14:25:59;20.60;79.70
56046;DHT22;41913;51.030;3.706;2023-02-24T14:28:33;20.60;79.30
56046;DHT22;41913;51.030;3.706;2023-02-24T14:31:06;20.60;79.50
56046;DHT22;41913;51.030;3.706;2023-02-24T14:33:33;20.60;79.80
56046;DHT22;41913;51.030;3.706;2023-02-24T14:36:01;20.70;79.90
56046;DHT22;41913;51.030;3.706;2023-02-24T14:38:37;20.70;80.30
56046;DHT22;41913;51.030;3.706;2023-02-24T14:41:20;20.70;80.40
56046;DHT22;41913;51.030;3.706;2023-02-24T14:43:48;20.70;80.60
56046;DHT22;41913;51.030;3.706;2023-02-24T14:46:14;20.70;80.70
56046;DHT22;41913;51.030;3.706;2023-02-24T14:48:42;20.70;80.80
56046;DHT22;41913;51.030;3.706;2023-02-24T14:51:19;20.60;81.00
56046;DHT22;41913;51.030;3.706;2023-02-24T14:53:50;20.70;81.20
56046;DHT22;41913;51.030;3.706;2023-02-24T14:56:18;20.70;81.30
56046;DHT22;41913;51.030;3.706;2023-02-24T14:58:48;20.70;81.30
56046;DHT22;41913;51.030;3.706;2023-02-24T15:03:47;20.70;81.30
56046;DHT22;41913;51.030;3.706;2023-02-24T15:06:22;20.70;81.40
56046;DHT22;41913;51.030;3.706;2023-02-24T15:09:12;20.70;81.50
56046;DHT22;41913;51.030;3.706;2023-02-24T15:11:39;20.70;82.10
56046;DHT22;41913;51.030;3.706;2023-02-24T15:14:27;20.70;81.60
56046;DHT22;41913;51.030;3.706;2023-02-24T15:17:02;20.70;81.60
56046;DHT22;41913;51.030;3.706;2023-02-24T15:19:33;20.80;81.60
56046;DHT22;41913;51.030;3.706;2023-02-24T15:24:48;20.70;81.50
56046;DHT22;41913;51.030;3.706;2023-02-24T15:29:42;20.70;81.40
56046;DHT22;41913;51.030;3.706;2023-02-24T15:32:18;20.70;81.40
56046;DHT22;41913;51.030;3.706;2023-02-24T15:34:46;20.70;81.40
56046;DHT22;41913;51.030;3.706;2023-02-24T15:37:26;20.70;81.40
56046;DHT22;41913;51.030;3.706;2023-02-24T15:40:30;20.70;81.50
56046;DHT22;41913;51.030;3.706;2023-02-24T15:43:09;20.70;81.40
56046;DHT22;41913;51.030;3.706;2023-02-24T15:45:38;20.70;81.40
56046;DHT22;41913;51.030;3.706;2023-02-24T15:48:23;20.70;81.40
56046;DHT22;41913;51.030;3.706;2023-02-24T15:50:53;20.70;81.40
56046;DHT22;41913;51.030;3.706;2023-02-24T15:53:19;20.70;81.40
56046;DHT22;41913;51.030;3.706;2023-02-24T15:55:45;20.70;81.40
56046;DHT22;41913;51.030;3.706;2023-02-24T15:58:19;20.70;81.40
56046;DHT22;41913;51.030;3.706;2023-02-24T16:00:47;20.80;81.40
56046;DHT22;41913;51.030;3.706;2023-02-24T16:03:17;20.70;81.40
56046;DHT22;41913;51.030;3.706;2023-02-24T16:05:43;20.70;81.50
56046;DHT22;41913;51.030;3.706;2023-02-24T16:08:12;20.70;81.50
56046;DHT22;41913;51.030;3.706;2023-02-24T16:10:41;20.70;81.50
56046;DHT22;41913;51.030;3.706;2023-02-24T16:13:18;20.70;81.50
56046;DHT22;41913;51.030;3.706;2023-02-24T16:15:45;20.70;81.50
56046;DHT22;41913;51.030;3.706;2023-02-24T16:18:15;20.70;81.60
56046;DHT22;41913;51.030;3.706;2023-02-24T16:20:43;20.70;81.60
56046;DHT22;41913;51.030;3.706;2023-02-24T16:23:11;20.70;81.60
56046;DHT22;41913;51.030;3.706;2023-02-24T16:25:41;20.70;81.70
56046;DHT22;41913;51.030;3.706;2023-02-24T16:28:13;20.70;81.70
56046;DHT22;41913;51.030;3.706;2023-02-24T16:30:39;20.70;82.20
56046;DHT22;41913;51.030;3.706;2023-02-24T16:33:12;20.60;81.60
56046;DHT22;41913;51.030;3.706;2023-02-24T16:35:39;20.60;81.60
56046;DHT22;41913;51.030;3.706;2023-02-24T16:38:11;20.60;81.50
56046;DHT22;41913;51.030;3.706;2023-02-24T16:40:41;20.70;81.70
56046;DHT22;41913;51.030;3.706;2023-02-24T16:43:08;20.70;81.70
56046;DHT22;41913;51.030;3.706;2023-02-24T16:45:33;20.70;81.70
56046;DHT22;41913;51.030;3.706;2023-02-24T16:48:06;20.70;81.70
56046;DHT22;41913;51.030;3.706;2023-02-24T16:50:37;20.70;81.80
56046;DHT22;41913;51.030;3.706;2023-02-24T16:53:07;20.60;81.70
56046;DHT22;41913;51.030;3.706;2023-02-24T16:55:33;20.60;81.70
56046;DHT22;41913;51.030;3.706;2023-02-24T16:57:59;20.60;81.60
56046;DHT22;41913;51.030;3.706;2023-02-24T17:00:25;20.60;81.60
56046;DHT22;41913;51.030;3.706;2023-02-24T17:02:52;20.60;81.60
56046;DHT22;41913;51.030;3.706;2023-02-24T17:05:24;20.70;81.60
56046;DHT22;41913;51.030;3.706;2023-02-24T17:07:51;20.70;81.60
56046;DHT22;41913;51.030;3.706;2023-02-24T17:10:18;20.70;81.60
56046;DHT22;41913;51.030;3.706;2023-02-24T17:12:44;20.70;81.60
56046;DHT22;41913;51.030;3.706;2023-02-24T17:15:23;20.60;81.50
56046;DHT22;41913;51.030;3.706;2023-02-24T17:17:49;20.60;81.50
56046;DHT22;41913;51.030;3.706;2023-02-24T17:20:17;20.60;81.60
56046;DHT22;41913;51.030;3.706;2023-02-24T17:22:43;20.60;81.60
56046;DHT22;41913;51.030;3.706;2023-02-24T17:25:15;20.60;81.70
56046;DHT22;41913;51.030;3.706;2023-02-24T17:27:41;20.70;81.80
56046;DHT22;41913;51.030;3.706;2023-02-24T17:30:18;20.60;81.80
56046;DHT22;41913;51.030;3.706;2023-02-24T17:32:44;20.70;81.80
56046;DHT22;41913;51.030;3.706;2023-02-24T17:35:10;20.70;81.80
56046;DHT22;41913;51.030;3.706;2023-02-24T17:37:36;20.60;81.80
56046;DHT22;41913;51.030;3.706;2023-02-24T17:40:03;20.60;81.80
56046;DHT22;41913;51.030;3.706;2023-02-24T17:42:29;20.60;81.80
56046;DHT22;41913;51.030;3.706;2023-02-24T17:44:55;20.60;82.00
56046;DHT22;41913;51.030;3.706;2023-02-24T17:47:21;20.60;82.10
56046;DHT22;41913;51.030;3.706;2023-02-24T17:49:46;20.60;82.10
56046;DHT22;41913;51.030;3.706;2023-02-24T17:52:12;20.70;82.20
56046;DHT22;41913;51.030;3.706;2023-02-24T17:54:38;20.60;82.10
56046;DHT22;41913;51.030;3.706;2023-02-24T17:57:04;20.60;82.10
56046;DHT22;41913;51.030;3.706;2023-02-24T17:59:30;20.60;82.20